Time;durP1;ratioP1;P1;durP2;ratioP2;P2;SDS_P1;SDS_P2;PMS_P1;PMS_P2;Temp;Humidity;BMP_temperature;BMP_pressure;BME280_temperature;BME280_humidity;BME280_pressure;Samples;Min_cycle;Max_cycle;Signal;HPM_P1;HPM_P2
2022/10/24 00:02:11;;;;;;;21.55;5.32;;;;;;;14.84;97.66;95630.78;5049290;28;20025;-59
2022/10/24 00:04:39;;;;;;;17.77;6.03;;;;;;;14.82;97.61;95631.94;5048582;28;20104;-59
2022/10/24 00:07:05;;;;;;;26.60;5.95;;;;;;;14.84;97.48;95628.13;5049523;28;20028;-67
2022/10/24 00:09:31;;;;;;;22.35;6.75;;;;;;;14.85;97.77;95631.59;5048820;28;20106;-67
2022/10/24 00:11:57;;;;;;;16.10;5.55;;;;;;;14.83;97.67;95629.13;5042522;28;20056;-67
2022/10/24 00:14:22;;;;;;;16.13;5.25;;;;;;;14.84;98.03;95633.41;5044148;28;20467;-67
2022/10/24 00:16:47;;;;;;;21.45;6.68;;;;;;;14.80;98.19;95640.06;5050058;28;20029;-67
2022/10/24 00:19:13;;;;;;;22.88;7.65;;;;;;;14.80;98.26;95629.47;5048748;28;20392;-67
2022/10/24 00:21:38;;;;;;;25.15;6.47;;;;;;;14.92;96.61;95642.34;5030157;28;20483;-66
2022/10/24 00:24:05;;;;;;;18.50;5.78;;;;;;;14.94;95.93;95643.81;5030517;28;20112;-65
2022/10/24 00:26:30;;;;;;;21.25;5.97;;;;;;;14.98;95.40;95636.38;5030520;28;20032;-66
2022/10/24 00:28:56;;;;;;;16.23;5.68;;;;;;;15.15;93.66;95645.09;5043180;28;20398;-67
2022/10/24 00:31:21;;;;;;;24.92;5.53;;;;;;;15.20;92.44;95642.72;5030113;28;20494;-66
2022/10/24 00:33:47;;;;;;;20.85;5.68;;;;;;;15.21;92.25;95648.88;5030165;28;20503;-67
2022/10/24 00:36:17;;;;;;;24.40;6.05;;;;;;;15.16;92.76;95658.19;5030133;28;20413;-67
2022/10/24 00:38:43;;;;;;;24.30;5.72;;;;;;;15.14;93.16;95668.13;5030719;28;20032;-66
2022/10/24 00:41:15;;;;;;;15.93;5.53;;;;;;;15.08;94.80;95670.63;5030482;28;20379;-67
2022/10/24 00:43:40;;;;;;;21.25;5.50;;;;;;;15.03;94.65;95673.78;5043335;28;20025;-62
2022/10/24 00:46:05;;;;;;;14.68;5.60;;;;;;;14.97;95.47;95679.78;5030406;28;20036;-67
2022/10/24 00:48:57;;;;;;;33.33;6.25;;;;;;;15.02;94.93;95694.16;5031016;28;20576;-67
2022/10/24 00:51:27;;;;;;;21.02;5.95;;;;;;;15.09;93.88;95706.75;5029734;28;20044;-67
2022/10/24 00:53:58;;;;;;;20.45;6.13;;;;;;;15.23;92.72;95699.91;5030773;28;20029;-66
2022/10/24 00:56:27;;;;;;;26.83;5.47;;;;;;;15.28;92.11;95693.09;5031144;28;20096;-66
2022/10/24 00:58:55;;;;;;;28.95;6.55;;;;;;;15.29;92.10;95693.91;5030736;28;20104;-66
2022/10/24 01:01:24;;;;;;;19.38;5.45;;;;;;;15.37;92.24;95701.88;5031188;28;20116;-59
2022/10/24 01:03:49;;;;;;;25.98;6.35;;;;;;;15.67;90.95;95698.56;5030377;28;20449;-66
2022/10/24 01:06:30;;;;;;;23.50;6.72;;;;;;;15.99;89.12;95678.19;5032155;28;20025;-62
2022/10/24 01:09:29;;;;;;;21.52;6.53;;;;;;;16.09;89.39;95692.03;5042972;28;20083;-62
2022/10/24 01:11:57;;;;;;;21.33;6.70;;;;;;;16.26;89.71;95692.78;5036898;28;20402;-63
2022/10/24 01:14:44;;;;;;;25.70;6.38;;;;;;;16.45;89.29;95682.63;5048826;28;20036;-63
2022/10/24 01:17:18;;;;;;;24.95;7.43;;;;;;;16.59;88.95;95679.22;5048918;28;20037;-63
2022/10/24 01:19:49;;;;;;;19.48;6.60;;;;;;;16.65;88.22;95676.81;5048510;28;20024;-64
2022/10/24 01:22:36;;;;;;;26.25;7.03;;;;;;;16.62;88.32;95680.69;5049194;28;20025;-64
2022/10/24 01:25:16;;;;;;;28.08;7.60;;;;;;;16.67;88.47;95675.66;5038529;28;20032;-68
2022/10/24 01:27:53;;;;;;;26.45;7.38;;;;;;;16.72;87.88;95673.28;5045265;28;20017;-68
2022/10/24 01:30:19;;;;;;;20.17;6.55;;;;;;;16.77;87.96;95667.41;5041175;28;20163;-67
2022/10/24 01:33:02;;;;;;;28.13;7.18;;;;;;;16.78;88.07;95654.94;5048269;28;20111;-68
2022/10/24 01:35:53;;;;;;;26.83;6.95;;;;;;;16.76;88.05;95650.63;5048721;28;20036;-67
2022/10/24 01:38:38;;;;;;;20.05;7.47;;;;;;;16.79;87.76;95649.44;5037607;28;20029;-68
2022/10/24 01:41:08;;;;;;;24.50;7.63;;;;;;;16.76;87.81;95640.00;5036946;28;20449;-63
2022/10/24 01:43:40;;;;;;;23.92;6.65;;;;;;;16.66;89.35;95646.59;5050025;28;20576;-58
2022/10/24 01:46:13;;;;;;;24.50;7.40;;;;;;;16.60;89.86;95640.19;5032787;28;20083;-59
2022/10/24 01:48:44;;;;;;;21.45;6.50;;;;;;;16.64;89.62;95643.28;5048395;28;20025;-59
2022/10/24 01:51:13;;;;;;;27.80;6.93;;;;;;;16.64;89.34;95641.47;5052106;28;20028;-59
2022/10/24 01:53:41;;;;;;;17.63;6.22;;;;;;;16.47;90.39;95646.13;5047985;28;20021;-59
2022/10/24 01:56:07;;;;;;;25.23;6.57;;;;;;;16.30;91.89;95645.41;5033127;28;20052;-59
2022/10/24 01:58:33;;;;;;;21.70;6.78;;;;;;;16.16;93.46;95649.69;5049446;28;20024;-68
2022/10/24 02:01:02;;;;;;;22.70;6.93;;;;;;;16.04;94.11;95642.16;5052712;28;20027;-59
2022/10/24 02:03:41;;;;;;;20.85;7.28;;;;;;;15.95;95.81;95648.50;5051392;28;20021;-67
2022/10/24 02:06:10;;;;;;;21.77;7.95;;;;;;;15.95;95.37;95645.03;5051588;28;20521;-68
2022/10/24 02:08:42;;;;;;;23.95;7.60;;;;;;;15.88;95.85;95644.88;5050577;28;20056;-68
2022/10/24 02:11:08;;;;;;;23.75;6.75;;;;;;;15.81;96.46;95643.94;5051778;28;20040;-67
2022/10/24 02:13:33;;;;;;;19.00;7.97;;;;;;;15.74;97.14;95636.66;5045170;28;20568;-67
2022/10/24 02:16:01;;;;;;;27.92;6.70;;;;;;;15.71;96.86;95637.00;5033392;28;20069;-66
2022/10/24 02:18:29;;;;;;;32.53;7.50;;;;;;;15.67;97.55;95641.03;5033005;28;20108;-68
2022/10/24 02:21:05;;;;;;;24.48;6.95;;;;;;;15.62;97.71;95630.13;5033079;28;20244;-65
2022/10/24 02:23:44;;;;;;;16.90;6.93;;;;;;;15.57;99.20;95645.72;5033173;28;20028;-66
2022/10/24 02:26:23;;;;;;;14.40;7.07;;;;;;;15.54;98.76;95644.25;5033184;28;20060;-67
2022/10/24 02:28:52;;;;;;;31.83;7.75;;;;;;;15.51;99.77;95647.25;5032497;28;20087;-66
2022/10/24 02:31:22;;;;;;;27.95;7.72;;;;;;;15.50;98.96;95642.09;5033910;28;20104;-66
2022/10/24 02:33:50;;;;;;;23.77;7.50;;;;;;;15.45;100.00;95642.63;5049737;28;20386;-66
2022/10/24 02:36:19;;;;;;;24.05;7.53;;;;;;;15.43;100.00;95645.47;5046302;28;20032;-66
2022/10/24 02:38:47;;;;;;;18.10;6.78;;;;;;;15.53;100.00;95633.78;5032396;28;20025;-65
2022/10/24 02:41:19;;;;;;;19.58;7.60;;;;;;;15.42;100.00;95635.84;5043896;28;20033;-64
2022/10/24 02:43:45;;;;;;;23.13;7.00;;;;;;;15.37;100.00;95635.56;5031619;28;20036;-64
2022/10/24 02:46:13;;;;;;;19.90;6.68;;;;;;;15.37;100.00;95629.41;5033561;28;20025;-64
2022/10/24 02:48:44;;;;;;;20.92;6.40;;;;;;;15.43;100.00;95626.91;5040469;28;20029;-64
2022/10/24 02:51:13;;;;;;;21.83;6.65;;;;;;;15.35;100.00;95629.56;5050817;28;20612;-64
2022/10/24 02:53:40;;;;;;;25.58;7.50;;;;;;;15.44;100.00;95631.19;5051634;28;20103;-64
2022/10/24 02:56:06;;;;;;;18.45;6.57;;;;;;;15.36;100.00;95631.22;5050145;28;20052;-67
2022/10/24 02:58:31;;;;;;;24.25;6.65;;;;;;;15.31;100.00;95638.88;5041186;28;20028;-66
2022/10/24 03:00:56;;;;;;;20.40;7.32;;;;;;;15.27;100.00;95632.28;5031962;28;20025;-63
2022/10/24 03:03:22;;;;;;;22.05;7.32;;;;;;;15.30;100.00;95634.56;5031834;28;20037;-62
2022/10/24 03:05:47;;;;;;;23.05;7.05;;;;;;;15.37;100.00;95627.59;5040179;28;20025;-63
2022/10/24 03:08:13;;;;;;;22.55;7.13;;;;;;;15.37;100.00;95629.41;5034790;28;20021;-63
2022/10/24 03:10:38;;;;;;;16.48;6.28;;;;;;;15.36;100.00;95633.06;5041611;28;20056;-63
2022/10/24 03:13:03;;;;;;;17.90;6.88;;;;;;;15.36;100.00;95636.53;5047258;28;20472;-63
2022/10/24 03:15:29;;;;;;;19.42;6.90;;;;;;;15.27;100.00;95633.13;5031113;28;20040;-64
2022/10/24 03:17:54;;;;;;;20.25;7.10;;;;;;;15.23;100.00;95631.78;5031882;28;20063;-63
2022/10/24 03:20:20;;;;;;;25.92;7.30;;;;;;;15.28;100.00;95624.16;5031251;28;20079;-57
2022/10/24 03:22:45;;;;;;;24.90;7.22;;;;;;;15.37;100.00;95627.59;5031162;28;20025;-58
2022/10/24 03:25:11;;;;;;;17.63;7.20;;;;;;;15.30;100.00;95626.63;5031391;28;20024;-58
2022/10/24 03:27:37;;;;;;;19.88;7.10;;;;;;;15.24;100.00;95633.44;5031959;28;20025;-58
2022/10/24 03:30:03;;;;;;;26.38;7.20;;;;;;;15.21;100.00;95628.47;5041328;28;20035;-58
2022/10/24 03:32:28;;;;;;;26.08;7.43;;;;;;;15.31;100.00;95639.72;5050324;28;20017;-58
2022/10/24 03:34:54;;;;;;;17.27;6.78;;;;;;;15.20;100.00;95645.38;5050697;28;20025;-64
2022/10/24 03:37:19;;;;;;;19.60;7.10;;;;;;;15.13;100.00;95653.19;5033600;28;20046;-65
2022/10/24 03:39:45;;;;;;;24.25;7.47;;;;;;;15.12;100.00;95654.19;5039901;28;20044;-58
2022/10/24 03:42:10;;;;;;;23.00;7.60;;;;;;;15.06;100.00;95657.53;5036085;28;20531;-58
2022/10/24 03:44:36;;;;;;;21.45;6.72;;;;;;;15.01;100.00;95667.84;5030718;28;20052;-58
2022/10/24 03:47:01;;;;;;;30.67;7.57;;;;;;;15.01;100.00;95662.53;5030479;28;20483;-58
2022/10/24 03:49:26;;;;;;;22.67;7.28;;;;;;;14.97;100.00;95655.94;5030613;28;20025;-58
2022/10/24 03:51:52;;;;;;;20.52;7.40;;;;;;;14.92;100.00;95656.44;5030624;28;20021;-58
2022/10/24 03:54:17;;;;;;;22.75;8.10;;;;;;;14.89;100.00;95665.53;5030504;28;20108;-59
2022/10/24 03:56:44;;;;;;;19.92;7.38;;;;;;;14.89;100.00;95651.47;5030312;28;20028;-67
2022/10/24 03:59:10;;;;;;;23.45;7.88;;;;;;;14.80;100.00;95663.06;5038044;28;20024;-59
2022/10/24 04:01:35;;;;;;;30.45;7.60;;;;;;;14.77;100.00;95658.94;5048269;28;20021;-58
2022/10/24 04:04:01;;;;;;;23.60;8.07;;;;;;;14.72;100.00;95677.19;5030398;28;20082;-58
2022/10/24 04:06:26;;;;;;;17.52;7.35;;;;;;;14.69;100.00;95682.75;5030757;28;20022;-58
2022/10/24 04:08:52;;;;;;;26.33;8.18;;;;;;;14.66;100.00;95694.53;5030992;28;20057;-58
2022/10/24 04:11:17;;;;;;;27.40;7.97;;;;;;;14.57;100.00;95706.97;5045345;28;20021;-59
2022/10/24 04:13:42;;;;;;;24.08;7.57;;;;;;;14.53;100.00;95710.94;5041456;28;20552;-66
2022/10/24 04:16:08;;;;;;;24.95;9.18;;;;;;;14.53;100.00;95703.00;5030991;28;20025;-66
2022/10/24 04:18:34;;;;;;;21.38;8.32;;;;;;;14.52;100.00;95711.94;5031021;28;20406;-66
2022/10/24 04:20:59;;;;;;;19.95;8.98;;;;;;;14.52;100.00;95708.44;5043708;28;20025;-67
2022/10/24 04:23:26;;;;;;;20.83;7.60;;;;;;;14.49;100.00;95687.59;5030724;28;20037;-67
2022/10/24 04:25:52;;;;;;;29.08;8.55;;;;;;;14.52;100.00;95679.31;5031015;28;20025;-68
2022/10/24 04:28:17;;;;;;;25.58;8.48;;;;;;;14.45;100.00;95677.34;5030873;28;20029;-68
2022/10/24 04:30:43;;;;;;;24.90;7.80;;;;;;;14.41;100.00;95670.72;5031563;28;21328;-67
2022/10/24 04:33:08;;;;;;;20.08;7.65;;;;;;;14.38;100.00;95664.94;5030580;28;20087;-67
2022/10/24 04:35:34;;;;;;;23.38;8.05;;;;;;;14.38;100.00;95660.47;5031308;28;20037;-60
2022/10/24 04:37:59;;;;;;;30.48;7.80;;;;;;;14.33;100.00;95671.56;5031081;28;20033;-59
2022/10/24 04:40:24;;;;;;;21.23;7.68;;;;;;;14.23;100.00;95662.13;5042592;28;20060;-58
2022/10/24 04:42:50;;;;;;;27.55;8.00;;;;;;;14.28;100.00;95665.09;5049574;28;20024;-59
2022/10/24 04:45:15;;;;;;;22.50;7.55;;;;;;;14.29;100.00;95664.94;5035987;28;20029;-59
2022/10/24 04:47:41;;;;;;;24.33;8.48;;;;;;;14.27;100.00;95666.94;5042843;28;20025;-59
2022/10/24 04:50:07;;;;;;;32.33;9.68;;;;;;;14.31;100.00;95673.53;5042842;28;20515;-59
2022/10/24 04:52:32;;;;;;;22.45;7.85;;;;;;;14.27;100.00;95674.88;5042849;28;20053;-64
2022/10/24 04:54:58;;;;;;;26.35;8.20;;;;;;;14.27;100.00;95679.31;5029225;28;20073;-59
2022/10/24 04:57:23;;;;;;;24.27;7.93;;;;;;;14.51;100.00;95670.56;5048591;28;20028;-59
2022/10/24 04:59:48;;;;;;;30.80;8.55;;;;;;;14.45;100.00;95673.84;5037219;28;20443;-59
2022/10/24 05:02:14;;;;;;;18.30;6.93;;;;;;;14.37;100.00;95684.47;5030892;28;20040;-59
2022/10/24 05:04:39;;;;;;;25.65;8.60;;;;;;;14.31;100.00;95692.06;5030118;28;20033;-59
2022/10/24 05:07:04;;;;;;;25.17;8.45;;;;;;;14.29;100.00;95704.66;5030007;28;20079;-59
2022/10/24 05:09:30;;;;;;;25.02;8.02;;;;;;;14.29;100.00;95703.81;5029959;28;20140;-59
2022/10/24 05:11:56;;;;;;;21.77;7.57;;;;;;;14.30;100.00;95701.00;5041959;28;20040;-67
2022/10/24 05:14:22;;;;;;;27.23;8.85;;;;;;;14.25;100.00;95703.31;5030133;28;20124;-64
2022/10/24 05:16:48;;;;;;;22.23;7.47;;;;;;;14.22;100.00;95711.59;5031500;28;20128;-63
2022/10/24 05:19:15;;;;;;;21.23;7.97;;;;;;;14.17;100.00;95714.75;5033990;28;20562;-63
2022/10/24 05:21:40;;;;;;;21.67;8.18;;;;;;;14.22;100.00;95718.72;5033723;28;20140;-63
2022/10/24 05:24:06;;;;;;;25.45;7.80;;;;;;;14.22;100.00;95714.22;5034195;28;20112;-63
2022/10/24 05:26:31;;;;;;;28.08;7.63;;;;;;;14.21;100.00;95725.00;5033951;28;20025;-63
2022/10/24 05:28:57;;;;;;;20.58;7.60;;;;;;;14.22;100.00;95714.22;5045438;28;20028;-64
2022/10/24 05:31:22;;;;;;;21.40;7.53;;;;;;;14.20;100.00;95732.09;5033938;28;20076;-59
2022/10/24 05:33:47;;;;;;;16.33;7.22;;;;;;;14.20;100.00;95742.69;5034269;28;20546;-68
2022/10/24 05:36:13;;;;;;;24.63;8.32;;;;;;;14.13;100.00;95752.28;5033465;28;20029;-69
2022/10/24 05:38:38;;;;;;;23.08;7.43;;;;;;;14.09;100.00;95756.25;5033908;28;20595;-68
2022/10/24 05:41:04;;;;;;;27.45;7.72;;;;;;;14.06;100.00;95764.53;5050397;28;20021;-69
2022/10/24 05:43:29;;;;;;;29.55;8.13;;;;;;;14.06;100.00;95764.53;5051647;28;20017;-69
2022/10/24 05:45:55;;;;;;;15.63;7.75;;;;;;;14.13;100.00;95774.28;5047213;28;20101;-69
2022/10/24 05:48:20;;;;;;;20.38;7.03;;;;;;;14.10;100.00;95779.09;5033816;28;20025;-69
2022/10/24 05:50:45;;;;;;;25.98;7.40;;;;;;;14.07;100.00;95779.41;5033603;28;20021;-67
2022/10/24 05:53:11;;;;;;;19.67;7.47;;;;;;;14.01;100.00;95771.13;5033959;28;20025;-65
2022/10/24 05:55:37;;;;;;;23.77;7.38;;;;;;;13.98;100.00;95763.50;5032854;28;20136;-64
2022/10/24 05:58:02;;;;;;;18.00;7.03;;;;;;;13.91;100.00;95767.78;5033155;28;20159;-63
2022/10/24 06:00:28;;;;;;;19.27;7.30;;;;;;;13.85;100.00;95771.09;5050979;28;20421;-64
2022/10/24 06:02:53;;;;;;;25.35;8.38;;;;;;;13.83;100.00;95773.88;5052417;28;20040;-64
2022/10/24 06:05:19;;;;;;;23.63;8.60;;;;;;;13.88;100.00;95771.56;5051471;28;20085;-64
2022/10/24 06:07:44;;;;;;;21.70;7.60;;;;;;;13.96;100.00;95777.91;5051803;28;20066;-64
2022/10/24 06:10:11;;;;;;;21.73;8.70;;;;;;;13.90;100.00;95776.72;5051621;28;20036;-68
2022/10/24 06:12:37;;;;;;;20.00;7.28;;;;;;;13.88;100.00;95774.22;5039381;28;20025;-70
2022/10/24 06:15:06;;;;;;;19.90;8.23;;;;;;;13.92;100.00;95780.03;5032271;28;20030;-70
2022/10/24 06:17:32;;;;;;;22.38;7.50;;;;;;;13.92;100.00;95830.31;5032742;28;20036;-70
2022/10/24 06:19:58;;;;;;;22.10;8.25;;;;;;;13.90;100.00;95843.69;5032932;28;20056;-70
2022/10/24 06:22:24;;;;;;;30.85;7.75;;;;;;;13.99;100.00;95799.56;5033009;28;20045;-69
2022/10/24 06:24:49;;;;;;;15.52;6.00;;;;;;;14.80;100.00;95816.78;5032164;28;20022;-68
2022/10/24 06:27:15;;;;;;;27.13;7.65;;;;;;;14.24;100.00;95827.94;5041202;28;20309;-69
2022/10/24 06:29:41;;;;;;;16.55;7.40;;;;;;;14.01;100.00;95862.94;5041172;28;20538;-68
2022/10/24 06:32:06;;;;;;;27.20;8.35;;;;;;;13.95;100.00;95839.75;5034554;28;20036;-59
2022/10/24 06:34:32;;;;;;;20.80;7.32;;;;;;;13.96;100.00;95813.13;5032334;28;20033;-59
2022/10/24 06:36:58;;;;;;;17.10;7.35;;;;;;;13.93;100.00;95831.97;5032608;28;20482;-60
2022/10/24 06:39:23;;;;;;;26.40;7.25;;;;;;;13.91;100.00;95878.94;5036392;28;20021;-59
2022/10/24 06:41:49;;;;;;;9.80;3.58;;;;;;;14.50;100.00;95894.06;5051730;28;20032;-59
2022/10/24 06:44:14;;;;;;;7.63;2.33;;;;;;;14.65;100.00;95883.66;5051038;28;20425;-59
2022/10/24 06:46:39;;;;;;;6.28;2.65;;;;;;;14.77;100.00;95870.13;5051417;28;20021;-59
2022/10/24 06:49:06;;;;;;;8.23;3.20;;;;;;;14.42;100.00;95857.78;5051609;28;20111;-70
2022/10/24 06:51:31;;;;;;;10.48;2.95;;;;;;;14.32;100.00;95855.28;5051377;28;20405;-60
2022/10/24 06:53:58;;;;;;;5.28;2.45;;;;;;;14.12;100.00;95867.13;5050813;28;20024;-59
2022/10/24 06:56:23;;;;;;;8.52;2.90;;;;;;;13.93;100.00;95870.84;5051131;28;20051;-59
2022/10/24 06:58:49;;;;;;;8.73;3.30;;;;;;;13.72;100.00;95866.78;5051030;28;20096;-59
2022/10/24 07:01:17;;;;;;;6.13;3.78;;;;;;;13.60;100.00;95871.50;5051187;28;20049;-59
2022/10/24 07:03:43;;;;;;;13.07;3.55;;;;;;;13.55;100.00;95887.00;5050548;28;20033;-59
2022/10/24 07:06:24;;;;;;;11.15;3.83;;;;;;;13.51;100.00;95867.13;5051153;28;20025;-69
2022/10/24 07:08:51;;;;;;;9.45;3.60;;;;;;;13.51;100.00;95853.91;5039508;28;20113;-69
2022/10/24 07:11:17;;;;;;;6.13;3.03;;;;;;;13.50;100.00;95846.97;5049960;28;20025;-64
2022/10/24 07:13:42;;;;;;;14.65;2.97;;;;;;;13.46;100.00;95846.44;5050206;28;20094;-63
2022/10/24 07:16:08;;;;;;;10.18;2.83;;;;;;;13.42;100.00;95855.66;5049379;28;20035;-63
2022/10/24 07:18:34;;;;;;;12.70;3.55;;;;;;;13.43;100.00;95857.34;5050813;28;20033;-64
2022/10/24 07:21:22;;;;;;;6.03;3.30;;;;;;;13.39;100.00;95864.75;5050552;28;20029;-63
2022/10/24 07:23:50;;;;;;;8.70;3.15;;;;;;;13.36;100.00;95862.38;5039849;28;20087;-63
2022/10/24 07:26:16;;;;;;;8.27;3.35;;;;;;;13.36;100.00;95857.09;5031679;28;20405;-64
2022/10/24 07:28:45;;;;;;;7.75;2.83;;;;;;;13.36;100.00;95841.22;5042701;28;20027;-67
2022/10/24 07:31:13;;;;;;;12.80;2.97;;;;;;;13.36;100.00;95828.00;5032509;28;20021;-67
2022/10/24 07:33:40;;;;;;;7.47;2.85;;;;;;;13.35;100.00;95814.97;5031313;28;20029;-67
2022/10/24 07:36:06;;;;;;;7.40;3.15;;;;;;;13.35;100.00;95814.97;5031497;28;20025;-67
2022/10/24 07:38:31;;;;;;;9.88;3.17;;;;;;;13.39;100.00;95811.84;5031361;28;20029;-66
2022/10/24 07:40:56;;;;;;;5.78;2.72;;;;;;;13.38;100.00;95807.56;5042503;28;20030;-66
2022/10/24 07:43:22;;;;;;;7.20;3.17;;;;;;;13.37;100.00;95831.50;5030940;28;20037;-66
2022/10/24 07:45:48;;;;;;;10.20;3.67;;;;;;;13.37;100.00;95842.88;5048565;28;20021;-66
2022/10/24 07:48:14;;;;;;;6.47;3.08;;;;;;;13.41;100.00;95832.84;5039027;28;20029;-67
2022/10/24 07:50:45;;;;;;;13.00;4.03;;;;;;;13.45;100.00;95829.75;5044168;28;20044;-67
2022/10/24 07:53:11;;;;;;;8.68;4.35;;;;;;;13.41;100.00;95824.91;5031313;28;20082;-67
2022/10/24 07:55:38;;;;;;;12.88;3.83;;;;;;;13.58;100.00;95813.47;5049129;28;20062;-67
2022/10/24 07:58:04;;;;;;;8.32;3.90;;;;;;;13.60;100.00;95822.06;5049405;28;20036;-67
2022/10/24 08:00:29;;;;;;;8.80;3.47;;;;;;;13.50;100.00;95796.72;5031762;28;20491;-67
2022/10/24 08:02:54;;;;;;;8.40;3.70;;;;;;;13.44;100.00;95790.25;5030361;28;20021;-67
2022/10/24 08:05:20;;;;;;;12.27;3.75;;;;;;;13.37;100.00;95805.88;5036002;28;20024;-66
2022/10/24 08:07:45;;;;;;;7.55;3.55;;;;;;;13.33;100.00;95793.94;5049914;28;20471;-60
2022/10/24 08:10:12;;;;;;;17.48;4.78;;;;;;;13.31;100.00;95798.56;5049195;28;20060;-59
2022/10/24 08:12:37;;;;;;;11.35;4.30;;;;;;;13.33;100.00;95801.88;5037646;28;20483;-60
2022/10/24 08:15:03;;;;;;;10.73;4.25;;;;;;;13.40;100.00;95805.56;5031023;28;20032;-60
2022/10/24 08:17:29;;;;;;;8.02;4.30;;;;;;;13.49;100.00;95803.00;5042824;28;20486;-60
2022/10/24 08:19:54;;;;;;;11.82;3.75;;;;;;;13.58;100.00;95804.69;5049501;28;20027;-59
2022/10/24 08:22:20;;;;;;;8.13;4.65;;;;;;;13.67;100.00;95800.25;5049808;28;20025;-59
2022/10/24 08:24:45;;;;;;;9.38;3.83;;;;;;;13.74;100.00;95796.81;5049447;28;20103;-67
2022/10/24 08:27:12;;;;;;;13.77;4.55;;;;;;;13.78;100.00;95807.09;5049551;28;20108;-59
2022/10/24 08:29:37;;;;;;;11.35;4.20;;;;;;;13.88;100.00;95805.16;5048489;28;20028;-60
2022/10/24 08:32:05;;;;;;;15.77;4.10;;;;;;;13.92;100.00;95809.16;5049455;28;20073;-59
2022/10/24 08:34:31;;;;;;;13.20;4.88;;;;;;;13.93;100.00;95816.09;5048382;28;20020;-60
2022/10/24 08:36:56;;;;;;;12.20;4.18;;;;;;;13.95;100.00;95814.13;5049201;28;20029;-59
2022/10/24 08:39:23;;;;;;;9.70;3.90;;;;;;;13.99;100.00;95811.97;5046522;28;20115;-59
2022/10/24 08:41:55;;;;;;;10.43;4.20;;;;;;;14.09;100.00;95819.78;5049935;28;20033;-59
2022/10/24 08:44:35;;;;;;;7.45;4.10;;;;;;;14.09;100.00;95810.00;5030302;28;20029;-65
2022/10/24 08:47:25;;;;;;;12.43;4.35;;;;;;;14.10;100.00;95805.56;5030922;28;20096;-59
2022/10/24 08:50:05;;;;;;;10.65;4.97;;;;;;;14.00;100.00;95805.69;5049232;28;20086;-60
2022/10/24 08:52:36;;;;;;;16.63;4.75;;;;;;;14.11;100.00;95797.44;5047895;28;20032;-59
2022/10/24 08:55:12;;;;;;;10.32;5.28;;;;;;;13.96;100.00;95802.53;5047441;28;20057;-59
2022/10/24 08:57:42;;;;;;;13.50;5.15;;;;;;;13.95;100.00;95792.94;5037790;28;20033;-59
2022/10/24 09:00:17;;;;;;;12.80;4.53;;;;;;;14.01;100.00;95791.47;5047576;28;20103;-58
2022/10/24 09:02:48;;;;;;;9.85;4.35;;;;;;;13.90;100.00;95795.25;5049116;28;20056;-69
2022/10/24 09:05:30;;;;;;;12.15;4.93;;;;;;;13.89;100.00;95788.28;5047836;28;20494;-59
2022/10/24 09:08:01;;;;;;;10.15;4.20;;;;;;;13.92;100.00;95797.72;5047848;28;20053;-59
2022/10/24 09:11:03;;;;;;;10.32;4.13;;;;;;;13.83;100.00;95794.25;5040553;28;20152;-59
2022/10/24 09:13:30;;;;;;;8.98;4.60;;;;;;;13.78;100.00;95797.34;5026766;28;20026;-59
2022/10/24 09:15:56;;;;;;;9.77;4.60;;;;;;;13.75;100.00;95781.81;5031087;28;20073;-59
2022/10/24 09:18:26;;;;;;;8.60;4.32;;;;;;;13.75;100.00;95795.84;5029591;28;20517;-59
2022/10/24 09:20:52;;;;;;;12.50;5.32;;;;;;;13.76;100.00;95799.31;5029421;28;20112;-65
2022/10/24 09:23:20;;;;;;;11.00;4.88;;;;;;;13.73;100.00;95800.47;5029956;28;20021;-69
2022/10/24 09:25:52;;;;;;;6.03;4.82;;;;;;;13.77;100.00;95793.03;5031070;28;20035;-59
2022/10/24 09:28:18;;;;;;;12.50;5.07;;;;;;;13.78;100.00;95793.88;5040103;28;20021;-59
2022/10/24 09:30:44;;;;;;;10.23;5.88;;;;;;;13.80;100.00;95789.25;5029422;28;20033;-58
2022/10/24 09:33:30;;;;;;;10.43;4.82;;;;;;;13.79;100.00;95788.44;5029547;28;20021;-59
2022/10/24 09:35:59;;;;;;;10.20;4.45;;;;;;;13.79;100.00;95784.94;5029198;28;20030;-59
2022/10/24 09:38:27;;;;;;;12.57;4.88;;;;;;;13.85;100.00;95773.72;5042281;28;20037;-58
2022/10/24 09:40:55;;;;;;;13.85;4.65;;;;;;;13.92;100.00;95769.44;5045156;28;20086;-69
2022/10/24 09:44:00;;;;;;;7.78;4.05;;;;;;;13.90;100.00;95768.78;5037933;28;20029;-66
2022/10/24 09:46:46;;;;;;;6.65;4.20;;;;;;;13.93;100.00;95772.94;4997078;28;20034;-59
2022/10/24 09:49:12;;;;;;;14.02;4.57;;;;;;;13.93;100.00;95773.75;5006896;28;20499;-59
2022/10/24 09:51:48;;;;;;;8.30;4.13;;;;;;;13.90;100.00;95788.13;5032471;28;20512;-59
2022/10/24 09:54:17;;;;;;;15.85;4.47;;;;;;;13.92;100.00;95798.56;5029337;28;20052;-60
2022/10/24 09:56:44;;;;;;;7.97;4.55;;;;;;;14.00;100.00;95780.03;5029780;28;20037;-59
2022/10/24 09:59:30;;;;;;;10.82;4.80;;;;;;;14.25;100.00;95776.63;5029425;28;20030;-69
2022/10/24 10:02:28;;;;;;;9.05;4.68;;;;;;;14.41;100.00;95783.78;5029828;28;20495;-59
2022/10/24 10:05:02;;;;;;;13.10;4.90;;;;;;;14.64;100.00;95780.47;5034067;28;20080;-64
2022/10/24 10:07:37;;;;;;;9.77;4.80;;;;;;;14.77;100.00;95780.84;5033755;28;20044;-64
2022/10/24 10:10:06;;;;;;;13.37;4.87;;;;;;;14.86;100.00;95779.84;5038546;28;20309;-64
2022/10/24 10:12:41;;;;;;;9.38;4.07;;;;;;;14.87;100.00;95796.59;5052391;28;20060;-64
2022/10/24 10:15:25;;;;;;;7.30;3.97;;;;;;;14.89;100.00;95807.84;5032276;28;20507;-64
2022/10/24 10:17:53;;;;;;;8.73;3.80;;;;;;;14.97;100.00;95804.38;5048732;28;20258;-64
2022/10/24 10:20:39;;;;;;;6.45;3.92;;;;;;;15.04;100.00;95813.31;5051725;28;20514;-69
2022/10/24 10:23:24;;;;;;;;;;;;;;;14.98;100.00;95822.75;5051730;28;20092;-58
2022/10/24 10:25:59;;;;;;;9.38;3.88;;;;;;;15.11;100.00;95830.19;5051200;28;19912;-59
2022/10/24 10:28:25;;;;;;;5.70;3.10;;;;;;;15.10;100.00;95836.50;5051626;28;20025;-59
2022/10/24 10:30:54;;;;;;;7.28;3.30;;;;;;;15.30;100.00;95844.94;5051255;28;20024;-58
2022/10/24 10:33:28;;;;;;;11.00;3.47;;;;;;;15.54;100.00;95848.53;5051655;28;20019;-59
2022/10/24 10:36:16;;;;;;;5.53;2.75;;;;;;;15.69;100.00;95851.31;5050767;28;20029;-59
2022/10/24 10:39:18;;;;;;;7.10;2.63;;;;;;;16.06;100.00;95850.91;5048553;28;20025;-59
2022/10/24 10:42:11;;;;;;;5.55;3.10;;;;;;;16.42;100.00;95858.34;5032271;28;20483;-68
2022/10/24 10:44:44;;;;;;;9.65;3.63;;;;;;;16.58;100.00;95854.81;5032048;28;20036;-68
2022/10/24 10:47:37;;;;;;;13.35;3.78;;;;;;;16.51;100.00;95859.97;5044778;28;20040;-67
2022/10/24 10:50:32;;;;;;;13.18;3.50;;;;;;;16.29;100.00;95882.84;5031839;28;20029;-67
2022/10/24 10:53:20;;;;;;;8.15;3.33;;;;;;;16.34;100.00;95883.13;5032199;28;20075;-67
2022/10/24 10:55:58;;;;;;;9.65;3.28;;;;;;;16.13;100.00;95873.94;5032044;28;20498;-67
2022/10/24 10:58:46;;;;;;;4.28;2.75;;;;;;;16.24;100.00;95870.06;5032159;28;20104;-67
2022/10/24 11:01:14;;;;;;;7.95;2.85;;;;;;;16.15;100.00;95863.16;5031654;28;20052;-59
2022/10/24 11:04:13;;;;;;;9.77;2.80;;;;;;;15.94;100.00;95869.84;5031425;28;20017;-59
2022/10/24 11:06:57;;;;;;;8.98;2.75;;;;;;;15.87;100.00;95866.22;5047049;28;20051;-59
2022/10/24 11:09:28;;;;;;;11.13;2.63;;;;;;;15.72;100.00;95872.22;5039711;28;20116;-60
2022/10/24 11:12:18;;;;;;;14.70;2.88;;;;;;;15.69;100.00;95863.75;5038158;28;20059;-59
2022/10/24 11:14:46;;;;;;;6.95;2.80;;;;;;;15.72;100.00;95850.97;5050368;28;20024;-59
2022/10/24 11:17:18;;;;;;;8.00;2.75;;;;;;;15.80;100.00;95833.38;5050668;28;20032;-63
2022/10/24 11:19:59;;;;;;;9.40;2.97;;;;;;;15.85;100.00;95823.91;5050258;28;20032;-68
2022/10/24 11:22:29;;;;;;;8.60;2.83;;;;;;;15.84;100.00;95835.50;5050326;28;20100;-67
2022/10/24 11:25:17;;;;;;;6.45;2.70;;;;;;;15.82;100.00;95832.22;5050870;28;20024;-68
2022/10/24 11:27:51;;;;;;;5.40;2.88;;;;;;;15.86;100.00;95830.03;5050217;28;20465;-67
2022/10/24 11:30:30;;;;;;;13.60;3.00;;;;;;;15.84;100.00;95838.16;5050806;28;20021;-67
2022/10/24 11:33:00;;;;;;;8.00;3.30;;;;;;;15.83;100.00;95822.44;5037704;28;20051;-67
2022/10/24 11:35:32;;;;;;;9.65;2.72;;;;;;;15.88;100.00;95830.69;5050095;28;20020;-68